sensor_id;sensor_type;location;lat;lon;timestamp;P1;durP1;ratioP1;P2;durP2;ratioP2
53409;SDS011;66590;50.734;4.246;2023-06-14T00:02:07;9.02;;;7.88;;
53409;SDS011;66590;50.734;4.246;2023-06-14T00:04:34;7.85;;;7.10;;
53409;SDS011;66590;50.734;4.246;2023-06-14T00:07:01;8.70;;;7.78;;
53409;SDS011;66590;50.734;4.246;2023-06-14T00:09:29;8.15;;;7.30;;
53409;SDS011;66590;50.734;4.246;2023-06-14T00:11:56;10.00;;;7.45;;
53409;SDS011;66590;50.734;4.246;2023-06-14T00:14:23;9.82;;;8.00;;
53409;SDS011;66590;50.734;4.246;2023-06-14T00:16:52;9.82;;;7.32;;
53409;SDS011;66590;50.734;4.246;2023-06-14T00:19:20;11.10;;;7.28;;
53409;SDS011;66590;50.734;4.246;2023-06-14T00:21:47;13.05;;;8.43;;
53409;SDS011;66590;50.734;4.246;2023-06-14T00:24:15;9.77;;;8.48;;
53409;SDS011;66590;50.734;4.246;2023-06-14T00:26:42;9.93;;;8.20;;
53409;SDS011;66590;50.734;4.246;2023-06-14T00:29:09;9.15;;;7.75;;
53409;SDS011;66590;50.734;4.246;2023-06-14T00:31:36;9.95;;;8.57;;
53409;SDS011;66590;50.734;4.246;2023-06-14T00:34:04;10.68;;;7.90;;
53409;SDS011;66590;50.734;4.246;2023-06-14T00:36:31;8.60;;;7.80;;
53409;SDS011;66590;50.734;4.246;2023-06-14T00:38:58;8.77;;;7.72;;
53409;SDS011;66590;50.734;4.246;2023-06-14T00:41:25;9.52;;;7.90;;
53409;SDS011;66590;50.734;4.246;2023-06-14T00:43:52;8.63;;;7.68;;
53409;SDS011;66590;50.734;4.246;2023-06-14T00:46:19;9.90;;;7.53;;
53409;SDS011;66590;50.734;4.246;2023-06-14T00:48:47;11.48;;;7.80;;
53409;SDS011;66590;50.734;4.246;2023-06-14T00:51:15;8.70;;;7.82;;
53409;SDS011;66590;50.734;4.246;2023-06-14T00:53:43;8.80;;;7.80;;
53409;SDS011;66590;50.734;4.246;2023-06-14T00:56:10;8.40;;;7.57;;
53409;SDS011;66590;50.734;4.246;2023-06-14T00:58:37;10.80;;;8.20;;
53409;SDS011;66590;50.734;4.246;2023-06-14T01:01:04;8.45;;;7.68;;
53409;SDS011;66590;50.734;4.246;2023-06-14T01:03:31;9.52;;;7.80;;
53409;SDS011;66590;50.734;4.246;2023-06-14T01:05:59;8.02;;;7.22;;
53409;SDS011;66590;50.734;4.246;2023-06-14T01:08:38;8.93;;;8.13;;
53409;SDS011;66590;50.734;4.246;2023-06-14T01:11:16;10.73;;;7.85;;
53409;SDS011;66590;50.734;4.246;2023-06-14T01:13:47;10.05;;;7.97;;
53409;SDS011;66590;50.734;4.246;2023-06-14T01:16:16;9.52;;;8.63;;
53409;SDS011;66590;50.734;4.246;2023-06-14T01:18:44;8.63;;;7.72;;
53409;SDS011;66590;50.734;4.246;2023-06-14T01:21:19;8.93;;;8.05;;
53409;SDS011;66590;50.734;4.246;2023-06-14T01:23:48;11.77;;;8.25;;
53409;SDS011;66590;50.734;4.246;2023-06-14T01:26:16;8.95;;;7.80;;
53409;SDS011;66590;50.734;4.246;2023-06-14T01:28:44;9.48;;;8.10;;
53409;SDS011;66590;50.734;4.246;2023-06-14T01:31:11;9.20;;;8.32;;
53409;SDS011;66590;50.734;4.246;2023-06-14T01:33:39;9.20;;;8.25;;
53409;SDS011;66590;50.734;4.246;2023-06-14T01:36:06;10.13;;;8.30;;
53409;SDS011;66590;50.734;4.246;2023-06-14T01:38:35;13.52;;;8.30;;
53409;SDS011;66590;50.734;4.246;2023-06-14T01:41:05;9.55;;;7.63;;
53409;SDS011;66590;50.734;4.246;2023-06-14T01:43:34;8.80;;;7.90;;
53409;SDS011;66590;50.734;4.246;2023-06-14T01:46:01;9.52;;;8.13;;
53409;SDS011;66590;50.734;4.246;2023-06-14T01:48:29;9.52;;;8.52;;
53409;SDS011;66590;50.734;4.246;2023-06-14T01:50:56;10.60;;;8.50;;
53409;SDS011;66590;50.734;4.246;2023-06-14T01:53:23;8.57;;;7.68;;
53409;SDS011;66590;50.734;4.246;2023-06-14T01:55:50;9.15;;;8.00;;
53409;SDS011;66590;50.734;4.246;2023-06-14T01:58:19;10.05;;;8.68;;
53409;SDS011;66590;50.734;4.246;2023-06-14T02:00:46;9.18;;;8.13;;
53409;SDS011;66590;50.734;4.246;2023-06-14T02:03:13;9.60;;;8.52;;
53409;SDS011;66590;50.734;4.246;2023-06-14T02:05:40;9.45;;;8.65;;
53409;SDS011;66590;50.734;4.246;2023-06-14T02:08:07;11.05;;;8.75;;
53409;SDS011;66590;50.734;4.246;2023-06-14T02:10:34;8.93;;;8.05;;
53409;SDS011;66590;50.734;4.246;2023-06-14T02:13:02;9.77;;;8.80;;
53409;SDS011;66590;50.734;4.246;2023-06-14T02:15:30;10.07;;;8.98;;
53409;SDS011;66590;50.734;4.246;2023-06-14T02:17:58;9.73;;;8.30;;
53409;SDS011;66590;50.734;4.246;2023-06-14T02:20:25;9.30;;;8.40;;
53409;SDS011;66590;50.734;4.246;2023-06-14T02:22:52;9.80;;;8.73;;
53409;SDS011;66590;50.734;4.246;2023-06-14T02:25:19;9.25;;;8.38;;
53409;SDS011;66590;50.734;4.246;2023-06-14T02:27:46;9.38;;;8.40;;
53409;SDS011;66590;50.734;4.246;2023-06-14T02:30:13;9.35;;;8.35;;
53409;SDS011;66590;50.734;4.246;2023-06-14T02:32:42;11.02;;;8.23;;
53409;SDS011;66590;50.734;4.246;2023-06-14T02:35:09;11.38;;;8.77;;
53409;SDS011;66590;50.734;4.246;2023-06-14T02:37:37;10.02;;;8.48;;
53409;SDS011;66590;50.734;4.246;2023-06-14T02:40:04;10.50;;;8.55;;
53409;SDS011;66590;50.734;4.246;2023-06-14T02:42:32;9.88;;;8.20;;
53409;SDS011;66590;50.734;4.246;2023-06-14T02:44:59;13.23;;;8.48;;
53409;SDS011;66590;50.734;4.246;2023-06-14T02:47:26;10.05;;;8.65;;
53409;SDS011;66590;50.734;4.246;2023-06-14T02:49:56;10.00;;;9.10;;
53409;SDS011;66590;50.734;4.246;2023-06-14T02:52:23;12.70;;;9.18;;
53409;SDS011;66590;50.734;4.246;2023-06-14T02:54:50;10.50;;;8.85;;
53409;SDS011;66590;50.734;4.246;2023-06-14T02:57:17;9.52;;;8.63;;
53409;SDS011;66590;50.734;4.246;2023-06-14T02:59:44;9.77;;;8.88;;
53409;SDS011;66590;50.734;4.246;2023-06-14T03:02:11;9.88;;;8.80;;
53409;SDS011;66590;50.734;4.246;2023-06-14T03:04:39;9.77;;;8.75;;
53409;SDS011;66590;50.734;4.246;2023-06-14T03:07:07;9.77;;;8.48;;
53409;SDS011;66590;50.734;4.246;2023-06-14T03:09:35;9.57;;;8.68;;
53409;SDS011;66590;50.734;4.246;2023-06-14T03:12:02;11.43;;;9.30;;
53409;SDS011;66590;50.734;4.246;2023-06-14T03:14:29;10.02;;;9.02;;
53409;SDS011;66590;50.734;4.246;2023-06-14T03:16:57;12.07;;;9.35;;
53409;SDS011;66590;50.734;4.246;2023-06-14T03:19:24;12.02;;;9.43;;
53409;SDS011;66590;50.734;4.246;2023-06-14T03:21:51;12.90;;;9.07;;
53409;SDS011;66590;50.734;4.246;2023-06-14T03:24:20;11.82;;;9.63;;
53409;SDS011;66590;50.734;4.246;2023-06-14T03:26:47;9.52;;;8.60;;
53409;SDS011;66590;50.734;4.246;2023-06-14T03:29:14;10.68;;;9.60;;
53409;SDS011;66590;50.734;4.246;2023-06-14T03:31:57;14.45;;;9.63;;
53409;SDS011;66590;50.734;4.246;2023-06-14T03:34:25;11.18;;;9.10;;
53409;SDS011;66590;50.734;4.246;2023-06-14T03:36:52;10.40;;;9.32;;
53409;SDS011;66590;50.734;4.246;2023-06-14T03:39:21;10.85;;;9.40;;
53409;SDS011;66590;50.734;4.246;2023-06-14T03:41:48;12.25;;;10.52;;
53409;SDS011;66590;50.734;4.246;2023-06-14T03:44:15;10.65;;;9.50;;
53409;SDS011;66590;50.734;4.246;2023-06-14T03:46:44;11.95;;;10.30;;
53409;SDS011;66590;50.734;4.246;2023-06-14T03:49:11;11.07;;;8.75;;
53409;SDS011;66590;50.734;4.246;2023-06-14T03:51:38;10.45;;;9.45;;
53409;SDS011;66590;50.734;4.246;2023-06-14T03:54:06;11.30;;;9.63;;
53409;SDS011;66590;50.734;4.246;2023-06-14T03:56:54;11.02;;;9.82;;
53409;SDS011;66590;50.734;4.246;2023-06-14T03:59:21;11.60;;;9.75;;
53409;SDS011;66590;50.734;4.246;2023-06-14T04:01:48;11.57;;;10.23;;
53409;SDS011;66590;50.734;4.246;2023-06-14T04:04:15;12.13;;;9.93;;
53409;SDS011;66590;50.734;4.246;2023-06-14T04:06:42;10.43;;;9.32;;
53409;SDS011;66590;50.734;4.246;2023-06-14T04:09:09;11.93;;;9.77;;
53409;SDS011;66590;50.734;4.246;2023-06-14T04:11:36;12.68;;;10.25;;
53409;SDS011;66590;50.734;4.246;2023-06-14T04:14:05;12.18;;;9.98;;
53409;SDS011;66590;50.734;4.246;2023-06-14T04:16:32;11.05;;;9.93;;
53409;SDS011;66590;50.734;4.246;2023-06-14T04:19:00;10.68;;;9.45;;
53409;SDS011;66590;50.734;4.246;2023-06-14T04:21:27;12.18;;;10.48;;
53409;SDS011;66590;50.734;4.246;2023-06-14T04:23:54;10.88;;;9.77;;
53409;SDS011;66590;50.734;4.246;2023-06-14T04:26:21;13.93;;;10.02;;
53409;SDS011;66590;50.734;4.246;2023-06-14T04:28:52;11.75;;;10.38;;
53409;SDS011;66590;50.734;4.246;2023-06-14T04:31:20;10.70;;;9.60;;
53409;SDS011;66590;50.734;4.246;2023-06-14T04:33:47;12.70;;;11.07;;
53409;SDS011;66590;50.734;4.246;2023-06-14T04:36:14;13.73;;;9.43;;
53409;SDS011;66590;50.734;4.246;2023-06-14T04:38:41;11.75;;;10.35;;
53409;SDS011;66590;50.734;4.246;2023-06-14T04:41:08;12.57;;;9.75;;
53409;SDS011;66590;50.734;4.246;2023-06-14T04:43:36;11.30;;;10.00;;
53409;SDS011;66590;50.734;4.246;2023-06-14T04:46:03;11.05;;;9.57;;
53409;SDS011;66590;50.734;4.246;2023-06-14T04:48:32;16.20;;;10.32;;
53409;SDS011;66590;50.734;4.246;2023-06-14T04:50:59;10.80;;;9.80;;
53409;SDS011;66590;50.734;4.246;2023-06-14T04:53:26;12.23;;;10.52;;
53409;SDS011;66590;50.734;4.246;2023-06-14T04:55:55;10.70;;;9.60;;
53409;SDS011;66590;50.734;4.246;2023-06-14T04:58:22;12.80;;;10.45;;
53409;SDS011;66590;50.734;4.246;2023-06-14T05:00:49;11.20;;;10.00;;
53409;SDS011;66590;50.734;4.246;2023-06-14T05:03:16;14.88;;;9.73;;
53409;SDS011;66590;50.734;4.246;2023-06-14T05:05:45;11.90;;;10.38;;
53409;SDS011;66590;50.734;4.246;2023-06-14T05:08:12;10.35;;;9.35;;
53409;SDS011;66590;50.734;4.246;2023-06-14T05:10:39;11.05;;;9.80;;
53409;SDS011;66590;50.734;4.246;2023-06-14T05:13:06;11.38;;;10.27;;
53409;SDS011;66590;50.734;4.246;2023-06-14T05:15:33;14.23;;;10.10;;
53409;SDS011;66590;50.734;4.246;2023-06-14T05:18:00;12.27;;;10.25;;
53409;SDS011;66590;50.734;4.246;2023-06-14T05:20:27;11.30;;;10.20;;
53409;SDS011;66590;50.734;4.246;2023-06-14T05:22:56;12.00;;;9.95;;
53409;SDS011;66590;50.734;4.246;2023-06-14T05:25:23;11.70;;;9.98;;
53409;SDS011;66590;50.734;4.246;2023-06-14T05:27:50;10.40;;;9.07;;
53409;SDS011;66590;50.734;4.246;2023-06-14T05:30:18;10.93;;;9.65;;
53409;SDS011;66590;50.734;4.246;2023-06-14T05:32:45;13.00;;;10.23;;
53409;SDS011;66590;50.734;4.246;2023-06-14T05:35:12;15.02;;;10.73;;
53409;SDS011;66590;50.734;4.246;2023-06-14T05:37:40;14.43;;;10.40;;
53409;SDS011;66590;50.734;4.246;2023-06-14T05:40:09;11.90;;;8.95;;
53409;SDS011;66590;50.734;4.246;2023-06-14T05:42:37;16.45;;;9.82;;
53409;SDS011;66590;50.734;4.246;2023-06-14T05:45:04;12.63;;;9.88;;
53409;SDS011;66590;50.734;4.246;2023-06-14T05:47:32;10.80;;;9.80;;
53409;SDS011;66590;50.734;4.246;2023-06-14T05:50:00;12.98;;;9.90;;
53409;SDS011;66590;50.734;4.246;2023-06-14T05:52:27;13.73;;;10.63;;
53409;SDS011;66590;50.734;4.246;2023-06-14T05:54:54;12.80;;;9.20;;
53409;SDS011;66590;50.734;4.246;2023-06-14T05:57:22;10.35;;;9.35;;
53409;SDS011;66590;50.734;4.246;2023-06-14T05:59:49;11.27;;;9.00;;
53409;SDS011;66590;50.734;4.246;2023-06-14T06:02:17;10.43;;;9.43;;
53409;SDS011;66590;50.734;4.246;2023-06-14T06:04:44;10.70;;;9.60;;
53409;SDS011;66590;50.734;4.246;2023-06-14T06:07:11;12.00;;;9.40;;
53409;SDS011;66590;50.734;4.246;2023-06-14T06:09:38;11.50;;;9.27;;
53409;SDS011;66590;50.734;4.246;2023-06-14T06:12:08;9.85;;;8.70;;
53409;SDS011;66590;50.734;4.246;2023-06-14T06:14:37;11.98;;;8.95;;
53409;SDS011;66590;50.734;4.246;2023-06-14T06:17:04;11.45;;;9.60;;
53409;SDS011;66590;50.734;4.246;2023-06-14T06:19:32;11.30;;;10.18;;
53409;SDS011;66590;50.734;4.246;2023-06-14T06:21:59;10.70;;;9.48;;
53409;SDS011;66590;50.734;4.246;2023-06-14T06:24:26;11.10;;;9.95;;
53409;SDS011;66590;50.734;4.246;2023-06-14T06:26:53;15.07;;;9.80;;
53409;SDS011;66590;50.734;4.246;2023-06-14T06:29:20;9.65;;;8.75;;
53409;SDS011;66590;50.734;4.246;2023-06-14T06:31:49;10.27;;;9.40;;
53409;SDS011;66590;50.734;4.246;2023-06-14T06:34:16;10.02;;;9.00;;
53409;SDS011;66590;50.734;4.246;2023-06-14T06:36:43;10.38;;;9.18;;
53409;SDS011;66590;50.734;4.246;2023-06-14T06:39:10;9.77;;;8.88;;
53409;SDS011;66590;50.734;4.246;2023-06-14T06:41:38;10.75;;;9.07;;
53409;SDS011;66590;50.734;4.246;2023-06-14T06:44:05;9.95;;;9.13;;
53409;SDS011;66590;50.734;4.246;2023-06-14T06:46:32;10.10;;;9.10;;
53409;SDS011;66590;50.734;4.246;2023-06-14T06:49:01;10.45;;;9.35;;
53409;SDS011;66590;50.734;4.246;2023-06-14T06:51:28;10.55;;;9.10;;
53409;SDS011;66590;50.734;4.246;2023-06-14T06:53:55;9.80;;;8.90;;
53409;SDS011;66590;50.734;4.246;2023-06-14T06:56:23;9.10;;;8.30;;
53409;SDS011;66590;50.734;4.246;2023-06-14T06:58:53;11.25;;;8.88;;
53409;SDS011;66590;50.734;4.246;2023-06-14T07:01:20;9.77;;;8.40;;
53409;SDS011;66590;50.734;4.246;2023-06-14T07:03:47;11.48;;;9.13;;
53409;SDS011;66590;50.734;4.246;2023-06-14T07:06:16;10.55;;;8.77;;
53409;SDS011;66590;50.734;4.246;2023-06-14T07:08:43;9.82;;;8.77;;
53409;SDS011;66590;50.734;4.246;2023-06-14T07:11:11;9.73;;;8.68;;
53409;SDS011;66590;50.734;4.246;2023-06-14T07:13:38;8.93;;;8.13;;
53409;SDS011;66590;50.734;4.246;2023-06-14T07:16:05;9.30;;;8.35;;
53409;SDS011;66590;50.734;4.246;2023-06-14T07:18:33;11.63;;;8.45;;
53409;SDS011;66590;50.734;4.246;2023-06-14T07:21:01;8.77;;;7.93;;
53409;SDS011;66590;50.734;4.246;2023-06-14T07:23:30;8.98;;;8.02;;
53409;SDS011;66590;50.734;4.246;2023-06-14T07:25:57;10.02;;;8.65;;
53409;SDS011;66590;50.734;4.246;2023-06-14T07:28:24;9.95;;;8.13;;
53409;SDS011;66590;50.734;4.246;2023-06-14T07:30:51;11.55;;;8.70;;
53409;SDS011;66590;50.734;4.246;2023-06-14T07:33:18;8.90;;;7.70;;
53409;SDS011;66590;50.734;4.246;2023-06-14T07:35:46;8.82;;;7.45;;
53409;SDS011;66590;50.734;4.246;2023-06-14T07:38:13;9.57;;;8.45;;
53409;SDS011;66590;50.734;4.246;2023-06-14T07:40:41;9.13;;;8.32;;
53409;SDS011;66590;50.734;4.246;2023-06-14T07:43:08;8.95;;;7.75;;
53409;SDS011;66590;50.734;4.246;2023-06-14T07:45:35;9.32;;;8.43;;
53409;SDS011;66590;50.734;4.246;2023-06-14T07:48:03;9.43;;;8.18;;
53409;SDS011;66590;50.734;4.246;2023-06-14T07:50:31;10.05;;;8.27;;
53409;SDS011;66590;50.734;4.246;2023-06-14T07:52:59;9.23;;;8.15;;
53409;SDS011;66590;50.734;4.246;2023-06-14T07:55:26;8.98;;;7.78;;
53409;SDS011;66590;50.734;4.246;2023-06-14T07:58:03;9.30;;;8.05;;
53409;SDS011;66590;50.734;4.246;2023-06-14T08:00:30;9.88;;;7.50;;
53409;SDS011;66590;50.734;4.246;2023-06-14T08:02:57;8.75;;;7.40;;
53409;SDS011;66590;50.734;4.246;2023-06-14T08:05:27;11.45;;;7.78;;
53409;SDS011;66590;50.734;4.246;2023-06-14T08:07:54;11.32;;;7.70;;
53409;SDS011;66590;50.734;4.246;2023-06-14T08:10:22;8.88;;;7.80;;
53409;SDS011;66590;50.734;4.246;2023-06-14T08:12:49;11.63;;;7.45;;
53409;SDS011;66590;50.734;4.246;2023-06-14T08:15:18;8.52;;;7.45;;
53409;SDS011;66590;50.734;4.246;2023-06-14T08:17:48;7.72;;;7.00;;
53409;SDS011;66590;50.734;4.246;2023-06-14T08:20:16;9.15;;;8.25;;
53409;SDS011;66590;50.734;4.246;2023-06-14T08:22:43;8.23;;;7.43;;
53409;SDS011;66590;50.734;4.246;2023-06-14T08:25:10;9.80;;;7.30;;
53409;SDS011;66590;50.734;4.246;2023-06-14T08:27:37;9.60;;;7.63;;
53409;SDS011;66590;50.734;4.246;2023-06-14T08:30:05;9.10;;;8.30;;
53409;SDS011;66590;50.734;4.246;2023-06-14T08:32:34;8.68;;;7.82;;
53409;SDS011;66590;50.734;4.246;2023-06-14T08:35:01;9.15;;;8.25;;
53409;SDS011;66590;50.734;4.246;2023-06-14T08:37:37;8.10;;;7.35;;
53409;SDS011;66590;50.734;4.246;2023-06-14T08:40:06;8.60;;;7.45;;
53409;SDS011;66590;50.734;4.246;2023-06-14T08:42:44;7.75;;;7.03;;
53409;SDS011;66590;50.734;4.246;2023-06-14T08:45:12;9.88;;;8.88;;
53409;SDS011;66590;50.734;4.246;2023-06-14T08:47:41;9.23;;;7.20;;
53409;SDS011;66590;50.734;4.246;2023-06-14T08:50:09;8.18;;;7.30;;
53409;SDS011;66590;50.734;4.246;2023-06-14T08:52:54;8.27;;;7.57;;
53409;SDS011;66590;50.734;4.246;2023-06-14T08:55:23;7.95;;;7.13;;
53409;SDS011;66590;50.734;4.246;2023-06-14T08:57:50;8.70;;;7.75;;
53409;SDS011;66590;50.734;4.246;2023-06-14T09:00:20;8.75;;;7.18;;
53409;SDS011;66590;50.734;4.246;2023-06-14T09:02:49;7.70;;;7.00;;
53409;SDS011;66590;50.734;4.246;2023-06-14T09:05:17;7.55;;;6.88;;
53409;SDS011;66590;50.734;4.246;2023-06-14T09:07:44;8.20;;;7.22;;
53409;SDS011;66590;50.734;4.246;2023-06-14T09:10:12;9.50;;;7.47;;
53409;SDS011;66590;50.734;4.246;2023-06-14T09:12:41;8.15;;;7.38;;
53409;SDS011;66590;50.734;4.246;2023-06-14T09:15:09;8.38;;;7.38;;
53409;SDS011;66590;50.734;4.246;2023-06-14T09:17:36;8.98;;;7.35;;
53409;SDS011;66590;50.734;4.246;2023-06-14T09:20:07;7.47;;;6.72;;
53409;SDS011;66590;50.734;4.246;2023-06-14T09:22:35;7.97;;;7.18;;
53409;SDS011;66590;50.734;4.246;2023-06-14T09:25:03;8.02;;;7.20;;
53409;SDS011;66590;50.734;4.246;2023-06-14T09:27:31;9.40;;;7.38;;
53409;SDS011;66590;50.734;4.246;2023-06-14T09:30:01;8.18;;;7.47;;
53409;SDS011;66590;50.734;4.246;2023-06-14T09:32:29;13.23;;;9.55;;
53409;SDS011;66590;50.734;4.246;2023-06-14T09:34:57;8.65;;;7.88;;
53409;SDS011;66590;50.734;4.246;2023-06-14T09:37:30;8.27;;;7.55;;
53409;SDS011;66590;50.734;4.246;2023-06-14T09:39:58;11.17;;;7.57;;
53409;SDS011;66590;50.734;4.246;2023-06-14T09:42:25;10.02;;;8.25;;
53409;SDS011;66590;50.734;4.246;2023-06-14T09:44:53;8.40;;;7.60;;
53409;SDS011;66590;50.734;4.246;2023-06-14T09:47:21;8.43;;;7.60;;
53409;SDS011;66590;50.734;4.246;2023-06-14T09:49:49;9.18;;;8.02;;
53409;SDS011;66590;50.734;4.246;2023-06-14T09:52:17;8.32;;;7.15;;
53409;SDS011;66590;50.734;4.246;2023-06-14T09:54:47;10.90;;;7.63;;
53409;SDS011;66590;50.734;4.246;2023-06-14T09:57:15;7.53;;;6.82;;
53409;SDS011;66590;50.734;4.246;2023-06-14T09:59:43;8.23;;;7.45;;
53409;SDS011;66590;50.734;4.246;2023-06-14T10:02:13;9.02;;;7.05;;
53409;SDS011;66590;50.734;4.246;2023-06-14T10:04:49;8.32;;;7.55;;
53409;SDS011;66590;50.734;4.246;2023-06-14T10:07:22;8.90;;;7.95;;
53409;SDS011;66590;50.734;4.246;2023-06-14T10:09:53;9.35;;;7.95;;
53409;SDS011;66590;50.734;4.246;2023-06-14T10:12:20;11.30;;;7.43;;
53409;SDS011;66590;50.734;4.246;2023-06-14T10:14:48;8.10;;;7.28;;
53409;SDS011;66590;50.734;4.246;2023-06-14T10:17:21;9.65;;;7.30;;
53409;SDS011;66590;50.734;4.246;2023-06-14T10:20:03;8.48;;;7.65;;
53409;SDS011;66590;50.734;4.246;2023-06-14T10:22:43;8.45;;;7.15;;
53409;SDS011;66590;50.734;4.246;2023-06-14T10:25:27;8.35;;;7.65;;
53409;SDS011;66590;50.734;4.246;2023-06-14T10:31:02;8.63;;;7.50;;
53409;SDS011;66590;50.734;4.246;2023-06-14T10:33:33;12.23;;;8.48;;
53409;SDS011;66590;50.734;4.246;2023-06-14T10:36:11;9.93;;;8.10;;
53409;SDS011;66590;50.734;4.246;2023-06-14T10:38:56;8.88;;;8.05;;
53409;SDS011;66590;50.734;4.246;2023-06-14T10:41:27;9.27;;;8.00;;
53409;SDS011;66590;50.734;4.246;2023-06-14T10:46:55;10.13;;;7.90;;
53409;SDS011;66590;50.734;4.246;2023-06-14T10:49:36;8.40;;;7.50;;
53409;SDS011;66590;50.734;4.246;2023-06-14T10:52:08;8.60;;;7.70;;
53409;SDS011;66590;50.734;4.246;2023-06-14T10:54:36;8.48;;;6.60;;
53409;SDS011;66590;50.734;4.246;2023-06-14T10:57:05;8.48;;;7.60;;
53409;SDS011;66590;50.734;4.246;2023-06-14T10:59:33;8.65;;;7.65;;
53409;SDS011;66590;50.734;4.246;2023-06-14T11:02:06;9.90;;;8.23;;
53409;SDS011;66590;50.734;4.246;2023-06-14T11:04:52;9.25;;;7.53;;
53409;SDS011;66590;50.734;4.246;2023-06-14T11:07:37;8.90;;;7.97;;
53409;SDS011;66590;50.734;4.246;2023-06-14T11:10:17;10.13;;;7.35;;
53409;SDS011;66590;50.734;4.246;2023-06-14T11:12:54;8.02;;;7.30;;
53409;SDS011;66590;50.734;4.246;2023-06-14T11:15:27;7.45;;;6.70;;
53409;SDS011;66590;50.734;4.246;2023-06-14T11:17:54;8.82;;;6.80;;
53409;SDS011;66590;50.734;4.246;2023-06-14T11:20:24;8.70;;;7.28;;
53409;SDS011;66590;50.734;4.246;2023-06-14T11:22:54;9.68;;;6.75;;
53409;SDS011;66590;50.734;4.246;2023-06-14T11:25:21;8.25;;;6.88;;
53409;SDS011;66590;50.734;4.246;2023-06-14T11:27:48;8.27;;;7.35;;
53409;SDS011;66590;50.734;4.246;2023-06-14T11:30:17;8.27;;;7.50;;
53409;SDS011;66590;50.734;4.246;2023-06-14T11:32:46;7.15;;;6.45;;
53409;SDS011;66590;50.734;4.246;2023-06-14T11:35:13;7.65;;;6.85;;
53409;SDS011;66590;50.734;4.246;2023-06-14T11:37:41;8.20;;;7.40;;
53409;SDS011;66590;50.734;4.246;2023-06-14T11:40:09;8.75;;;6.53;;
53409;SDS011;66590;50.734;4.246;2023-06-14T11:42:37;8.10;;;6.95;;
53409;SDS011;66590;50.734;4.246;2023-06-14T11:45:07;7.60;;;6.80;;
53409;SDS011;66590;50.734;4.246;2023-06-14T11:47:43;8.18;;;6.80;;
53409;SDS011;66590;50.734;4.246;2023-06-14T11:50:10;7.47;;;6.80;;
53409;SDS011;66590;50.734;4.246;2023-06-14T11:52:37;9.88;;;7.13;;
53409;SDS011;66590;50.734;4.246;2023-06-14T11:55:05;7.72;;;6.57;;
53409;SDS011;66590;50.734;4.246;2023-06-14T11:57:33;8.15;;;7.40;;
53409;SDS011;66590;50.734;4.246;2023-06-14T12:00:02;11.02;;;6.75;;
53409;SDS011;66590;50.734;4.246;2023-06-14T12:02:31;12.68;;;7.18;;
53409;SDS011;66590;50.734;4.246;2023-06-14T12:05:03;8.70;;;6.95;;
53409;SDS011;66590;50.734;4.246;2023-06-14T12:07:31;7.50;;;6.80;;
53409;SDS011;66590;50.734;4.246;2023-06-14T12:10:05;8.75;;;7.60;;
53409;SDS011;66590;50.734;4.246;2023-06-14T12:12:35;7.97;;;7.15;;
53409;SDS011;66590;50.734;4.246;2023-06-14T12:15:03;9.43;;;7.15;;
53409;SDS011;66590;50.734;4.246;2023-06-14T12:17:32;9.05;;;6.55;;
53409;SDS011;66590;50.734;4.246;2023-06-14T12:20:06;11.38;;;7.47;;
53409;SDS011;66590;50.734;4.246;2023-06-14T12:25:01;8.57;;;6.63;;
53409;SDS011;66590;50.734;4.246;2023-06-14T12:27:28;7.53;;;6.70;;
53409;SDS011;66590;50.734;4.246;2023-06-14T12:29:59;8.75;;;6.35;;
53409;SDS011;66590;50.734;4.246;2023-06-14T12:32:27;6.75;;;6.13;;
53409;SDS011;66590;50.734;4.246;2023-06-14T12:34:55;7.20;;;6.55;;
53409;SDS011;66590;50.734;4.246;2023-06-14T12:37:23;8.00;;;6.22;;
53409;SDS011;66590;50.734;4.246;2023-06-14T12:39:50;8.77;;;6.65;;
53409;SDS011;66590;50.734;4.246;2023-06-14T12:42:17;8.13;;;6.20;;
53409;SDS011;66590;50.734;4.246;2023-06-14T12:44:44;8.02;;;6.63;;
53409;SDS011;66590;50.734;4.246;2023-06-14T12:47:11;6.85;;;6.30;;
53409;SDS011;66590;50.734;4.246;2023-06-14T12:49:39;7.57;;;6.45;;
53409;SDS011;66590;50.734;4.246;2023-06-14T12:52:06;9.27;;;6.38;;
53409;SDS011;66590;50.734;4.246;2023-06-14T12:54:35;8.02;;;5.93;;
53409;SDS011;66590;50.734;4.246;2023-06-14T12:57:06;8.02;;;6.15;;
53409;SDS011;66590;50.734;4.246;2023-06-14T12:59:34;8.70;;;6.00;;
53409;SDS011;66590;50.734;4.246;2023-06-14T13:02:11;10.48;;;6.55;;
53409;SDS011;66590;50.734;4.246;2023-06-14T13:04:39;9.57;;;5.95;;
53409;SDS011;66590;50.734;4.246;2023-06-14T13:07:06;7.05;;;6.13;;
53409;SDS011;66590;50.734;4.246;2023-06-14T13:09:34;7.03;;;6.15;;
53409;SDS011;66590;50.734;4.246;2023-06-14T13:12:02;7.70;;;5.88;;
53409;SDS011;66590;50.734;4.246;2023-06-14T13:14:30;7.50;;;6.70;;
53409;SDS011;66590;50.734;4.246;2023-06-14T13:16:57;7.90;;;5.78;;
53409;SDS011;66590;50.734;4.246;2023-06-14T13:19:24;7.30;;;5.97;;
53409;SDS011;66590;50.734;4.246;2023-06-14T13:21:51;6.72;;;6.13;;
53409;SDS011;66590;50.734;4.246;2023-06-14T13:24:18;8.38;;;6.47;;
53409;SDS011;66590;50.734;4.246;2023-06-14T13:26:47;6.03;;;5.43;;
53409;SDS011;66590;50.734;4.246;2023-06-14T13:29:14;8.55;;;6.35;;
53409;SDS011;66590;50.734;4.246;2023-06-14T13:31:41;9.82;;;5.90;;
53409;SDS011;66590;50.734;4.246;2023-06-14T13:34:08;10.43;;;6.10;;
53409;SDS011;66590;50.734;4.246;2023-06-14T13:36:35;8.40;;;5.95;;
53409;SDS011;66590;50.734;4.246;2023-06-14T13:39:02;8.23;;;5.93;;
53409;SDS011;66590;50.734;4.246;2023-06-14T13:41:29;8.45;;;5.70;;
53409;SDS011;66590;50.734;4.246;2023-06-14T13:43:58;14.40;;;6.28;;
53409;SDS011;66590;50.734;4.246;2023-06-14T13:46:26;7.75;;;5.60;;
53409;SDS011;66590;50.734;4.246;2023-06-14T13:48:53;6.80;;;5.60;;
53409;SDS011;66590;50.734;4.246;2023-06-14T13:51:20;6.63;;;5.10;;
53409;SDS011;66590;50.734;4.246;2023-06-14T13:53:47;9.70;;;5.82;;
53409;SDS011;66590;50.734;4.246;2023-06-14T13:56:15;5.93;;;5.30;;
53409;SDS011;66590;50.734;4.246;2023-06-14T13:58:42;7.28;;;5.70;;
53409;SDS011;66590;50.734;4.246;2023-06-14T14:01:11;7.50;;;5.03;;
53409;SDS011;66590;50.734;4.246;2023-06-14T14:03:38;7.97;;;5.50;;
53409;SDS011;66590;50.734;4.246;2023-06-14T14:06:05;6.50;;;5.78;;
53409;SDS011;66590;50.734;4.246;2023-06-14T14:08:32;6.03;;;5.18;;
53409;SDS011;66590;50.734;4.246;2023-06-14T14:11:00;8.93;;;4.90;;
53409;SDS011;66590;50.734;4.246;2023-06-14T14:13:27;7.63;;;4.50;;
53409;SDS011;66590;50.734;4.246;2023-06-14T14:15:54;5.38;;;4.88;;
53409;SDS011;66590;50.734;4.246;2023-06-14T14:18:24;8.45;;;5.13;;
53409;SDS011;66590;50.734;4.246;2023-06-14T14:20:54;4.68;;;4.25;;
53409;SDS011;66590;50.734;4.246;2023-06-14T14:23:21;6.25;;;4.45;;
53409;SDS011;66590;50.734;4.246;2023-06-14T14:25:48;6.28;;;4.70;;
53409;SDS011;66590;50.734;4.246;2023-06-14T14:28:15;7.38;;;4.50;;
53409;SDS011;66590;50.734;4.246;2023-06-14T14:30:42;4.85;;;4.30;;
53409;SDS011;66590;50.734;4.246;2023-06-14T14:33:09;7.68;;;4.32;;
53409;SDS011;66590;50.734;4.246;2023-06-14T14:35:38;5.00;;;4.07;;
53409;SDS011;66590;50.734;4.246;2023-06-14T14:38:05;6.22;;;4.45;;
53409;SDS011;66590;50.734;4.246;2023-06-14T14:40:33;6.60;;;4.13;;
53409;SDS011;66590;50.734;4.246;2023-06-14T14:43:00;5.03;;;4.13;;
53409;SDS011;66590;50.734;4.246;2023-06-14T14:45:27;4.47;;;4.05;;
53409;SDS011;66590;50.734;4.246;2023-06-14T14:47:54;7.20;;;4.28;;
53409;SDS011;66590;50.734;4.246;2023-06-14T14:50:25;4.85;;;4.05;;
53409;SDS011;66590;50.734;4.246;2023-06-14T14:52:53;5.15;;;3.72;;
53409;SDS011;66590;50.734;4.246;2023-06-14T14:55:20;9.10;;;3.70;;
53409;SDS011;66590;50.734;4.246;2023-06-14T14:57:47;7.10;;;3.72;;
53409;SDS011;66590;50.734;4.246;2023-06-14T15:00:15;4.57;;;3.30;;